createdAt,value
2018-08-10T00:01:06.052Z,17.80
2018-08-10T00:05:09.441Z,17.40
2018-08-10T00:09:12.117Z,17.50
2018-08-10T00:13:15.127Z,17.60
2018-08-10T00:17:17.767Z,17.40
2018-08-10T00:21:20.396Z,17.40
2018-08-10T00:25:23.007Z,17.30
2018-08-10T00:29:25.633Z,17.40
2018-08-10T00:33:28.242Z,17.50
2018-08-10T00:37:31.121Z,17.30
2018-08-10T00:41:40.872Z,17.30
2018-08-10T00:45:43.469Z,17.20
2018-08-10T00:49:46.034Z,17.10
2018-08-10T00:53:48.690Z,17.20
2018-08-10T00:57:51.299Z,17.20
2018-08-10T01:01:53.893Z,17.20
2018-08-10T01:05:56.573Z,17.00
2018-08-10T01:09:59.199Z,16.80
2018-08-10T01:14:01.845Z,17.00
2018-08-10T01:18:04.661Z,16.80
2018-08-10T01:22:07.281Z,16.80
2018-08-10T01:26:09.956Z,16.90
2018-08-10T01:30:12.703Z,16.70
2018-08-10T01:34:15.333Z,16.80
2018-08-10T01:38:17.937Z,16.90
2018-08-10T01:42:20.532Z,16.90
2018-08-10T01:46:23.222Z,16.80
2018-08-10T01:50:25.840Z,16.90
2018-08-10T01:54:28.464Z,16.80
2018-08-10T01:58:31.106Z,16.80
2018-08-10T02:02:33.993Z,16.60
2018-08-10T02:06:36.740Z,16.60
2018-08-10T02:10:39.471Z,16.70
2018-08-10T02:14:42.086Z,16.60
2018-08-10T02:18:44.690Z,16.60
2018-08-10T02:22:47.420Z,16.80
2018-08-10T02:26:50.135Z,16.90
2018-08-10T02:30:52.823Z,16.70
2018-08-10T02:34:55.365Z,16.70
2018-08-10T02:38:58.021Z,16.60
2018-08-10T02:43:00.688Z,16.60
2018-08-10T02:47:03.347Z,16.30
2018-08-10T02:51:05.932Z,16.40
2018-08-10T02:55:09.396Z,16.50
2018-08-10T02:59:11.957Z,16.30
2018-08-10T03:03:14.607Z,16.40
2018-08-10T03:07:17.235Z,16.40
2018-08-10T03:11:19.860Z,16.60
2018-08-10T03:15:22.536Z,16.30
2018-08-10T03:19:25.106Z,16.40
2018-08-10T03:23:27.695Z,16.40
2018-08-10T03:27:30.319Z,16.20
2018-08-10T03:31:32.975Z,16.20
2018-08-10T03:35:35.688Z,16.40
2018-08-10T03:39:38.318Z,16.20
2018-08-10T03:43:40.977Z,16.40
2018-08-10T03:47:43.541Z,16.10
2018-08-10T03:51:46.335Z,16.20
2018-08-10T03:55:48.970Z,16.00
2018-08-10T03:59:51.574Z,16.20
2018-08-10T04:03:54.324Z,16.20
2018-08-10T04:07:56.950Z,16.10
2018-08-10T04:11:59.589Z,16.00
2018-08-10T04:16:02.217Z,16.00
2018-08-10T04:20:05.356Z,15.90
2018-08-10T04:24:08.003Z,15.80
2018-08-10T04:28:10.701Z,15.70
2018-08-10T04:32:13.311Z,15.90
2018-08-10T04:36:15.938Z,15.80
2018-08-10T04:40:23.280Z,15.90
2018-08-10T04:44:25.912Z,15.90
2018-08-10T04:48:35.588Z,16.00
2018-08-10T04:52:38.329Z,16.30
2018-08-10T04:56:40.939Z,16.30
2018-08-10T05:00:43.508Z,16.00
2018-08-10T05:04:46.115Z,16.10
2018-08-10T05:08:48.940Z,16.20
2018-08-10T05:12:51.539Z,15.90
2018-08-10T05:16:54.159Z,16.10
2018-08-10T05:20:56.763Z,16.30
2018-08-10T05:24:59.517Z,16.60
2018-08-10T05:29:02.177Z,16.60
2018-08-10T05:33:04.847Z,16.70
2018-08-10T05:37:07.606Z,16.90
2018-08-10T05:41:10.365Z,16.60
2018-08-10T05:45:12.996Z,16.70
2018-08-10T05:49:15.626Z,16.80
2018-08-10T05:53:18.271Z,16.50
2018-08-10T05:57:20.851Z,17.10
2018-08-10T06:01:23.627Z,17.60
2018-08-10T06:05:26.421Z,17.90
2018-08-10T06:09:29.117Z,17.90
2018-08-10T06:13:31.942Z,18.10
2018-08-10T06:17:34.931Z,18.50
2018-08-10T06:21:37.956Z,18.10
2018-08-10T06:25:40.762Z,18.00
2018-08-10T06:29:43.355Z,18.30
2018-08-10T06:33:46.024Z,18.50
2018-08-10T06:37:48.888Z,18.70
2018-08-10T06:41:51.851Z,18.80
2018-08-10T06:45:54.716Z,18.70
2018-08-10T06:49:57.653Z,18.60
2018-08-10T06:54:00.529Z,19.00
2018-08-10T06:58:03.645Z,19.20
2018-08-10T07:02:07.016Z,19.40
2018-08-10T07:06:10.547Z,19.30
2018-08-10T07:10:13.462Z,19.50
2018-08-10T07:14:16.311Z,20.00
2018-08-10T07:18:23.630Z,19.90
2018-08-10T07:22:27.801Z,20.50
2018-08-10T07:26:30.859Z,20.60
2018-08-10T07:34:44.686Z,20.10
2018-08-10T07:38:47.699Z,20.80
2018-08-10T07:42:50.783Z,20.60
2018-08-10T07:46:54.529Z,20.60
2018-08-10T07:50:57.992Z,21.00
2018-08-10T07:55:00.978Z,20.20
2018-08-10T07:59:04.212Z,20.30
2018-08-10T08:03:07.271Z,20.70
2018-08-10T08:07:10.536Z,20.40
2018-08-10T08:11:14.187Z,20.50
2018-08-10T08:15:16.860Z,20.50
2018-08-10T08:19:19.718Z,20.40
2018-08-10T08:23:23.036Z,20.50
2018-08-10T08:27:25.930Z,21.00
2018-08-10T08:31:28.778Z,21.40
2018-08-10T08:35:31.499Z,22.00
2018-08-10T08:40:12.965Z,21.70
2018-08-10T08:44:28.557Z,22.20
2018-08-10T08:48:39.313Z,21.80
2018-08-10T08:52:41.970Z,22.00
2018-08-10T08:56:44.794Z,22.30
2018-08-10T09:00:47.668Z,22.00
2018-08-10T09:05:03.513Z,22.50
2018-08-10T09:09:42.727Z,22.50
2018-08-10T09:14:53.815Z,22.40
2018-08-10T09:18:57.473Z,21.60
2018-08-10T09:23:00.113Z,21.50
2018-08-10T09:27:03.198Z,21.90
2018-08-10T09:31:06.176Z,22.20
2018-08-10T09:35:09.799Z,21.90
2018-08-10T09:39:12.399Z,21.90
2018-08-10T09:43:15.127Z,21.80
2018-08-10T09:47:17.762Z,21.60
2018-08-10T09:51:20.386Z,20.90
2018-08-10T09:55:34.608Z,20.80
2018-08-10T09:59:37.232Z,20.70
2018-08-10T10:03:39.880Z,21.60
2018-08-10T10:07:43.225Z,22.10
2018-08-10T10:11:45.986Z,22.00
2018-08-10T10:15:48.595Z,22.80
2018-08-10T10:19:51.196Z,22.90
2018-08-10T10:23:53.842Z,22.90
2018-08-10T10:27:56.435Z,23.50
2018-08-10T10:31:59.238Z,23.90
2018-08-10T10:36:01.910Z,23.40
2018-08-10T10:40:06.042Z,24.10
2018-08-10T10:44:09.030Z,23.20
2018-08-10T10:48:11.633Z,22.90
2018-08-10T10:52:17.238Z,23.90
2018-08-10T10:56:20.094Z,24.00
2018-08-10T11:00:23.796Z,24.00
2018-08-10T11:04:26.402Z,23.80
2018-08-10T11:08:29.000Z,24.10
2018-08-10T11:12:31.626Z,24.70
2018-08-10T11:16:34.217Z,24.40
2018-08-10T11:20:36.842Z,24.80
2018-08-10T11:24:39.513Z,25.30
2018-08-10T11:28:42.082Z,25.40
2018-08-10T11:32:44.608Z,25.30
2018-08-10T11:36:47.269Z,24.80
2018-08-10T11:40:50.060Z,25.40
2018-08-10T11:44:52.712Z,25.20
2018-08-10T11:48:57.193Z,25.30
2018-08-10T11:52:59.800Z,24.80
2018-08-10T11:57:02.518Z,25.10
2018-08-10T12:01:05.251Z,25.20
2018-08-10T12:05:08.725Z,25.40
2018-08-10T12:09:12.333Z,25.50
2018-08-10T12:13:14.958Z,25.40
2018-08-10T12:17:17.784Z,25.30
2018-08-10T12:21:20.391Z,25.10
2018-08-10T12:25:22.973Z,24.40
2018-08-10T12:29:25.671Z,25.20
2018-08-10T12:33:28.408Z,25.10
2018-08-10T12:37:31.054Z,25.10
2018-08-10T12:41:33.653Z,25.30
2018-08-10T12:45:36.235Z,25.50
2018-08-10T12:49:38.848Z,25.50
2018-08-10T12:53:41.506Z,25.60
2018-08-10T12:57:44.178Z,24.50
2018-08-10T13:01:46.799Z,24.40
2018-08-10T13:05:49.430Z,23.80
2018-08-10T13:09:51.987Z,24.20
2018-08-10T13:13:54.573Z,24.00
2018-08-10T13:17:57.206Z,24.80
2018-08-10T13:21:59.829Z,25.10
2018-08-10T13:26:02.741Z,25.10
2018-08-10T13:30:06.813Z,25.00
2018-08-10T13:34:10.003Z,24.10
2018-08-10T13:38:12.615Z,24.40
2018-08-10T13:42:15.341Z,24.10
2018-08-10T13:46:18.013Z,24.50
2018-08-10T13:50:20.640Z,24.50
2018-08-10T13:54:23.263Z,24.70
2018-08-10T13:58:25.915Z,24.50
2018-08-10T14:02:28.672Z,24.70
2018-08-10T14:06:31.372Z,24.90
2018-08-10T14:10:33.989Z,24.40
2018-08-10T14:14:36.570Z,24.10
2018-08-10T14:18:39.221Z,23.60
2018-08-10T14:22:41.950Z,23.60
2018-08-10T14:26:44.570Z,24.80
2018-08-10T14:30:47.223Z,25.20
2018-08-10T14:34:49.881Z,25.10
2018-08-10T14:38:52.533Z,24.90
2018-08-10T14:42:55.138Z,24.20
2018-08-10T14:46:57.799Z,24.20
2018-08-10T14:51:00.380Z,23.80
2018-08-10T14:55:03.487Z,24.10
2018-08-10T14:59:06.176Z,24.10
2018-08-10T15:03:08.753Z,23.40
2018-08-10T15:07:11.349Z,23.10
2018-08-10T15:11:14.074Z,23.30
2018-08-10T15:15:17.943Z,23.70
2018-08-10T15:19:20.623Z,23.90
2018-08-10T15:23:23.317Z,23.90
2018-08-10T15:27:25.957Z,23.80
2018-08-10T15:31:28.672Z,23.50
2018-08-10T15:35:31.296Z,23.30
2018-08-10T15:39:34.058Z,23.20
2018-08-10T15:43:36.768Z,23.30
2018-08-10T15:47:39.464Z,22.80
2018-08-10T15:51:42.100Z,23.20
2018-08-10T15:55:44.751Z,23.20
2018-08-10T15:59:47.391Z,23.30
2018-08-10T16:03:50.024Z,23.30
2018-08-10T16:07:52.625Z,23.30
2018-08-10T16:11:56.141Z,23.10
2018-08-10T16:15:58.849Z,23.00
2018-08-10T16:20:01.473Z,23.30
2018-08-10T16:24:04.114Z,23.30
2018-08-10T16:28:06.938Z,23.30
2018-08-10T16:32:09.554Z,23.30
2018-08-10T16:36:12.312Z,23.30
2018-08-10T16:40:17.498Z,23.00
2018-08-10T16:44:20.106Z,23.10
2018-08-10T16:48:23.189Z,23.10
2018-08-10T16:52:25.779Z,23.10
2018-08-10T16:56:28.415Z,23.10
2018-08-10T17:00:31.128Z,23.10
2018-08-10T17:04:33.851Z,22.90
2018-08-10T17:08:36.536Z,22.90
2018-08-10T17:12:40.227Z,23.00
2018-08-10T17:16:42.898Z,23.10
2018-08-10T17:20:45.514Z,22.90
2018-08-10T17:24:48.112Z,22.80
2018-08-10T17:28:50.706Z,22.50
2018-08-10T17:32:53.522Z,22.60
2018-08-10T17:36:56.104Z,22.60
2018-08-10T17:40:58.760Z,22.50
2018-08-10T17:45:01.397Z,22.60
2018-08-10T17:49:04.150Z,22.60
2018-08-10T17:53:06.785Z,22.50
2018-08-10T17:57:09.942Z,22.60
2018-08-10T18:01:12.568Z,22.50
2018-08-10T18:05:16.025Z,22.50
2018-08-10T18:09:18.777Z,22.30
2018-08-10T18:13:21.523Z,22.30
2018-08-10T18:17:24.113Z,22.10
2018-08-10T18:21:26.721Z,21.90
2018-08-10T18:25:29.420Z,22.00
2018-08-10T18:29:32.105Z,22.00
2018-08-10T18:33:35.618Z,21.80
2018-08-10T18:37:39.275Z,21.80
2018-08-10T18:41:42.086Z,21.70
2018-08-10T18:45:44.707Z,21.50
2018-08-10T18:49:47.306Z,21.60
2018-08-10T18:53:49.953Z,21.50
2018-08-10T18:57:53.624Z,21.50
2018-08-10T19:01:56.230Z,21.50
2018-08-10T19:05:58.918Z,21.20
2018-08-10T19:10:01.579Z,21.10
2018-08-10T19:14:04.408Z,21.00
2018-08-10T19:18:07.995Z,20.90
2018-08-10T19:22:10.571Z,20.70
2018-08-10T19:26:13.278Z,20.70
2018-08-10T19:30:19.169Z,20.50
2018-08-10T19:34:21.870Z,20.40
2018-08-10T19:38:24.455Z,20.40
2018-08-10T19:42:27.052Z,20.40
2018-08-10T19:46:29.736Z,20.10
2018-08-10T19:50:32.394Z,20.00
2018-08-10T19:54:35.117Z,20.00
2018-08-10T19:58:37.702Z,20.00
2018-08-10T20:02:40.418Z,19.90
2018-08-10T20:06:43.004Z,19.80
2018-08-10T20:10:45.652Z,19.90
2018-08-10T20:14:48.240Z,19.60
2018-08-10T20:18:50.894Z,19.70
2018-08-10T20:22:53.593Z,19.50
2018-08-10T20:26:56.139Z,19.30
2018-08-10T20:30:58.733Z,19.40
2018-08-10T20:35:01.344Z,19.30
2018-08-10T20:39:08.041Z,19.20
2018-08-10T20:43:10.722Z,19.30
2018-08-10T20:47:13.432Z,19.10
2018-08-10T20:51:16.179Z,19.10
2018-08-10T20:55:19.088Z,19.20
2018-08-10T20:59:21.730Z,19.20
2018-08-10T21:03:24.423Z,19.10
2018-08-10T21:07:27.441Z,19.00
2018-08-10T21:11:31.040Z,18.90
2018-08-10T21:15:33.750Z,18.90
2018-08-10T21:19:36.456Z,18.90
2018-08-10T21:23:39.129Z,19.00
2018-08-10T21:27:42.365Z,19.00
2018-08-10T21:31:45.173Z,19.10
2018-08-10T21:35:47.951Z,19.00
2018-08-10T21:39:50.656Z,19.00
2018-08-10T21:43:53.415Z,19.00
2018-08-10T21:47:56.090Z,19.10
2018-08-10T21:51:58.887Z,19.10
2018-08-10T21:56:01.663Z,19.10
2018-08-10T22:00:10.833Z,19.10
2018-08-10T22:04:13.504Z,19.10
2018-08-10T22:08:16.906Z,19.00
2018-08-10T22:12:20.247Z,19.10
2018-08-10T22:16:28.549Z,19.00
2018-08-10T22:20:31.263Z,19.00
2018-08-10T22:24:34.107Z,19.10
2018-08-10T22:28:37.514Z,19.00
2018-08-10T22:32:40.487Z,18.90
2018-08-10T22:36:43.237Z,18.80
2018-08-10T22:40:45.821Z,18.80
2018-08-10T22:44:48.688Z,18.90
2018-08-10T22:48:51.360Z,18.60
2018-08-10T22:52:54.094Z,18.70
2018-08-10T22:56:56.805Z,18.70
2018-08-10T23:00:59.455Z,18.60
2018-08-10T23:05:02.064Z,18.70
2018-08-10T23:09:07.441Z,18.70
2018-08-10T23:13:10.653Z,18.60
2018-08-10T23:17:13.296Z,18.60
2018-08-10T23:21:15.901Z,18.60
2018-08-10T23:25:18.646Z,18.60
2018-08-10T23:29:21.186Z,18.50
2018-08-10T23:33:23.770Z,18.50
2018-08-10T23:37:26.438Z,18.50
2018-08-10T23:41:29.766Z,18.60
2018-08-10T23:45:32.402Z,18.50
2018-08-10T23:49:34.994Z,18.40
2018-08-10T23:53:37.757Z,18.50
2018-08-10T23:57:40.959Z,18.50
